sensor_id;sensor_type;location;lat;lon;timestamp;temperature;humidity
1355;DHT22;671;48.972;9.276;2023-05-07T00:01:00;14.80;99.90
1355;DHT22;671;48.972;9.276;2023-05-07T00:03:27;14.80;99.90
1355;DHT22;671;48.972;9.276;2023-05-07T00:05:54;14.70;99.90
1355;DHT22;671;48.972;9.276;2023-05-07T00:08:20;14.70;99.90
1355;DHT22;671;48.972;9.276;2023-05-07T00:10:47;14.70;99.90
1355;DHT22;671;48.972;9.276;2023-05-07T00:13:13;14.70;99.90
1355;DHT22;671;48.972;9.276;2023-05-07T00:15:40;14.60;99.90
1355;DHT22;671;48.972;9.276;2023-05-07T00:18:07;14.60;99.90
1355;DHT22;671;48.972;9.276;2023-05-07T00:20:33;14.60;99.90
1355;DHT22;671;48.972;9.276;2023-05-07T00:23:00;14.60;99.90
1355;DHT22;671;48.972;9.276;2023-05-07T00:25:26;14.60;99.90
1355;DHT22;671;48.972;9.276;2023-05-07T00:27:53;14.50;99.90
1355;DHT22;671;48.972;9.276;2023-05-07T00:30:19;14.50;99.90
1355;DHT22;671;48.972;9.276;2023-05-07T00:32:46;14.50;99.90
1355;DHT22;671;48.972;9.276;2023-05-07T00:35:15;14.40;99.90
1355;DHT22;671;48.972;9.276;2023-05-07T00:37:41;14.50;99.90
1355;DHT22;671;48.972;9.276;2023-05-07T00:40:08;14.40;99.90
1355;DHT22;671;48.972;9.276;2023-05-07T00:42:34;14.30;99.90
1355;DHT22;671;48.972;9.276;2023-05-07T00:45:02;14.30;99.90
1355;DHT22;671;48.972;9.276;2023-05-07T00:47:29;14.30;99.90
1355;DHT22;671;48.972;9.276;2023-05-07T00:49:56;14.20;99.90
1355;DHT22;671;48.972;9.276;2023-05-07T00:52:25;14.20;99.90
1355;DHT22;671;48.972;9.276;2023-05-07T00:54:52;14.10;99.90
1355;DHT22;671;48.972;9.276;2023-05-07T00:57:20;14.10;99.90
1355;DHT22;671;48.972;9.276;2023-05-07T00:59:47;14.10;99.90
1355;DHT22;671;48.972;9.276;2023-05-07T01:02:14;14.10;99.90
1355;DHT22;671;48.972;9.276;2023-05-07T01:04:41;14.10;99.90
1355;DHT22;671;48.972;9.276;2023-05-07T01:07:07;14.00;99.90
1355;DHT22;671;48.972;9.276;2023-05-07T01:09:35;14.00;99.90
1355;DHT22;671;48.972;9.276;2023-05-07T01:12:03;14.00;99.90
1355;DHT22;671;48.972;9.276;2023-05-07T01:14:30;14.00;99.90
1355;DHT22;671;48.972;9.276;2023-05-07T01:16:57;13.90;99.90
1355;DHT22;671;48.972;9.276;2023-05-07T01:19:24;13.90;99.90
1355;DHT22;671;48.972;9.276;2023-05-07T01:21:54;13.90;99.90
1355;DHT22;671;48.972;9.276;2023-05-07T01:24:24;13.90;99.90
1355;DHT22;671;48.972;9.276;2023-05-07T01:26:50;13.90;99.90
1355;DHT22;671;48.972;9.276;2023-05-07T01:29:17;13.80;99.90
1355;DHT22;671;48.972;9.276;2023-05-07T01:31:44;13.80;99.90
1355;DHT22;671;48.972;9.276;2023-05-07T01:34:11;13.80;99.90
1355;DHT22;671;48.972;9.276;2023-05-07T01:36:39;13.70;99.90
1355;DHT22;671;48.972;9.276;2023-05-07T01:39:06;13.70;99.90
1355;DHT22;671;48.972;9.276;2023-05-07T01:41:34;13.70;99.90
1355;DHT22;671;48.972;9.276;2023-05-07T01:44:01;13.60;99.90
1355;DHT22;671;48.972;9.276;2023-05-07T01:46:29;13.60;99.90
1355;DHT22;671;48.972;9.276;2023-05-07T01:48:57;13.60;99.90
1355;DHT22;671;48.972;9.276;2023-05-07T01:51:24;13.60;99.90
1355;DHT22;671;48.972;9.276;2023-05-07T01:53:52;13.60;99.90
1355;DHT22;671;48.972;9.276;2023-05-07T01:56:19;13.50;99.90
1355;DHT22;671;48.972;9.276;2023-05-07T01:58:46;13.50;99.90
1355;DHT22;671;48.972;9.276;2023-05-07T02:01:13;13.60;99.90
1355;DHT22;671;48.972;9.276;2023-05-07T02:03:40;13.50;99.90
1355;DHT22;671;48.972;9.276;2023-05-07T02:06:07;13.50;99.90
1355;DHT22;671;48.972;9.276;2023-05-07T02:08:33;13.60;99.90
1355;DHT22;671;48.972;9.276;2023-05-07T02:11:00;13.60;99.90
1355;DHT22;671;48.972;9.276;2023-05-07T02:13:32;13.50;99.90
1355;DHT22;671;48.972;9.276;2023-05-07T02:15:59;13.50;99.90
1355;DHT22;671;48.972;9.276;2023-05-07T02:18:25;13.50;99.90
1355;DHT22;671;48.972;9.276;2023-05-07T02:20:52;13.50;99.90
1355;DHT22;671;48.972;9.276;2023-05-07T02:23:18;13.50;99.90
1355;DHT22;671;48.972;9.276;2023-05-07T02:25:45;13.50;99.90
1355;DHT22;671;48.972;9.276;2023-05-07T02:28:12;13.50;99.90
1355;DHT22;671;48.972;9.276;2023-05-07T02:30:39;13.50;99.90
1355;DHT22;671;48.972;9.276;2023-05-07T02:33:06;13.50;99.90
1355;DHT22;671;48.972;9.276;2023-05-07T02:35:34;13.50;99.90
1355;DHT22;671;48.972;9.276;2023-05-07T02:38:01;13.50;99.90
1355;DHT22;671;48.972;9.276;2023-05-07T02:40:27;13.50;99.90
1355;DHT22;671;48.972;9.276;2023-05-07T02:42:54;13.50;99.90
1355;DHT22;671;48.972;9.276;2023-05-07T02:45:20;13.50;99.90
1355;DHT22;671;48.972;9.276;2023-05-07T02:47:47;13.50;99.90
1355;DHT22;671;48.972;9.276;2023-05-07T02:50:13;13.40;99.90
1355;DHT22;671;48.972;9.276;2023-05-07T02:52:40;13.40;99.90
1355;DHT22;671;48.972;9.276;2023-05-07T02:55:06;13.30;99.90
1355;DHT22;671;48.972;9.276;2023-05-07T02:57:33;13.30;99.90
1355;DHT22;671;48.972;9.276;2023-05-07T03:00:09;13.20;99.90
1355;DHT22;671;48.972;9.276;2023-05-07T03:02:36;13.10;99.90
1355;DHT22;671;48.972;9.276;2023-05-07T03:05:02;13.20;99.90
1355;DHT22;671;48.972;9.276;2023-05-07T03:07:29;13.10;99.90
1355;DHT22;671;48.972;9.276;2023-05-07T03:09:57;13.10;99.90
1355;DHT22;671;48.972;9.276;2023-05-07T03:12:24;13.10;99.90
1355;DHT22;671;48.972;9.276;2023-05-07T03:14:50;13.00;99.90
1355;DHT22;671;48.972;9.276;2023-05-07T03:17:17;13.00;99.90
1355;DHT22;671;48.972;9.276;2023-05-07T03:19:43;13.00;99.90
1355;DHT22;671;48.972;9.276;2023-05-07T03:22:10;13.00;99.90
1355;DHT22;671;48.972;9.276;2023-05-07T03:24:36;12.90;99.90
1355;DHT22;671;48.972;9.276;2023-05-07T03:27:03;13.00;99.90
1355;DHT22;671;48.972;9.276;2023-05-07T03:29:29;12.90;99.90
1355;DHT22;671;48.972;9.276;2023-05-07T03:31:56;12.90;99.90
1355;DHT22;671;48.972;9.276;2023-05-07T03:34:22;12.90;99.90
1355;DHT22;671;48.972;9.276;2023-05-07T03:36:49;12.80;99.90
1355;DHT22;671;48.972;9.276;2023-05-07T03:39:16;12.80;99.90
1355;DHT22;671;48.972;9.276;2023-05-07T03:41:42;12.80;99.90
1355;DHT22;671;48.972;9.276;2023-05-07T03:44:09;12.70;99.90
1355;DHT22;671;48.972;9.276;2023-05-07T03:46:35;12.70;99.90
1355;DHT22;671;48.972;9.276;2023-05-07T03:49:02;12.70;99.90
1355;DHT22;671;48.972;9.276;2023-05-07T03:51:28;12.60;99.90
1355;DHT22;671;48.972;9.276;2023-05-07T03:53:55;12.70;99.90
1355;DHT22;671;48.972;9.276;2023-05-07T03:56:23;12.60;99.90
1355;DHT22;671;48.972;9.276;2023-05-07T03:58:52;12.60;99.90
1355;DHT22;671;48.972;9.276;2023-05-07T04:01:19;12.60;99.90
1355;DHT22;671;48.972;9.276;2023-05-07T04:03:46;12.60;99.90
1355;DHT22;671;48.972;9.276;2023-05-07T04:06:13;12.60;99.90
1355;DHT22;671;48.972;9.276;2023-05-07T04:08:39;12.60;99.90
1355;DHT22;671;48.972;9.276;2023-05-07T04:11:06;12.60;99.90
1355;DHT22;671;48.972;9.276;2023-05-07T04:13:32;12.60;99.90
1355;DHT22;671;48.972;9.276;2023-05-07T04:16:01;12.60;99.90
1355;DHT22;671;48.972;9.276;2023-05-07T04:18:28;12.60;99.90
1355;DHT22;671;48.972;9.276;2023-05-07T04:20:55;12.60;99.90
1355;DHT22;671;48.972;9.276;2023-05-07T04:23:21;12.60;99.90
1355;DHT22;671;48.972;9.276;2023-05-07T04:25:48;12.60;99.90
1355;DHT22;671;48.972;9.276;2023-05-07T04:28:14;12.70;99.90
1355;DHT22;671;48.972;9.276;2023-05-07T04:30:41;12.70;99.90
1355;DHT22;671;48.972;9.276;2023-05-07T04:33:07;12.70;99.90
1355;DHT22;671;48.972;9.276;2023-05-07T04:35:34;12.70;99.90
1355;DHT22;671;48.972;9.276;2023-05-07T04:38:01;12.70;99.90
1355;DHT22;671;48.972;9.276;2023-05-07T04:40:27;12.80;99.90
1355;DHT22;671;48.972;9.276;2023-05-07T04:42:54;12.90;99.90
1355;DHT22;671;48.972;9.276;2023-05-07T04:45:20;12.90;99.90
1355;DHT22;671;48.972;9.276;2023-05-07T04:47:47;13.00;99.90
1355;DHT22;671;48.972;9.276;2023-05-07T04:50:14;13.10;99.90
1355;DHT22;671;48.972;9.276;2023-05-07T04:52:40;13.20;99.90
1355;DHT22;671;48.972;9.276;2023-05-07T04:55:07;13.20;99.90
1355;DHT22;671;48.972;9.276;2023-05-07T04:57:33;13.30;99.90
1355;DHT22;671;48.972;9.276;2023-05-07T05:00:00;13.40;99.90
1355;DHT22;671;48.972;9.276;2023-05-07T05:02:27;13.50;99.90
1355;DHT22;671;48.972;9.276;2023-05-07T05:04:53;13.60;99.90
1355;DHT22;671;48.972;9.276;2023-05-07T05:07:19;13.70;99.90
1355;DHT22;671;48.972;9.276;2023-05-07T05:09:46;14.00;99.90
1355;DHT22;671;48.972;9.276;2023-05-07T05:12:12;14.30;99.90
1355;DHT22;671;48.972;9.276;2023-05-07T05:14:39;14.60;99.90
1355;DHT22;671;48.972;9.276;2023-05-07T05:17:05;14.80;99.90
1355;DHT22;671;48.972;9.276;2023-05-07T05:19:32;14.80;99.90
1355;DHT22;671;48.972;9.276;2023-05-07T05:21:58;14.80;99.90
1355;DHT22;671;48.972;9.276;2023-05-07T05:24:27;14.90;99.90
1355;DHT22;671;48.972;9.276;2023-05-07T05:26:53;15.00;99.90
1355;DHT22;671;48.972;9.276;2023-05-07T05:29:20;14.90;99.90
1355;DHT22;671;48.972;9.276;2023-05-07T05:31:47;14.90;99.90
1355;DHT22;671;48.972;9.276;2023-05-07T05:34:14;15.00;99.90
1355;DHT22;671;48.972;9.276;2023-05-07T05:36:40;15.10;99.90
1355;DHT22;671;48.972;9.276;2023-05-07T05:39:07;15.20;99.90
1355;DHT22;671;48.972;9.276;2023-05-07T05:41:34;15.30;99.90
1355;DHT22;671;48.972;9.276;2023-05-07T05:44:01;15.30;99.90
1355;DHT22;671;48.972;9.276;2023-05-07T05:46:27;15.40;99.90
1355;DHT22;671;48.972;9.276;2023-05-07T05:48:54;15.40;99.90
1355;DHT22;671;48.972;9.276;2023-05-07T05:51:21;15.50;99.90
1355;DHT22;671;48.972;9.276;2023-05-07T05:53:47;15.60;99.90
1355;DHT22;671;48.972;9.276;2023-05-07T05:56:14;15.70;99.90
1355;DHT22;671;48.972;9.276;2023-05-07T05:58:42;15.80;99.90
1355;DHT22;671;48.972;9.276;2023-05-07T06:01:08;16.00;99.90
1355;DHT22;671;48.972;9.276;2023-05-07T06:03:35;16.20;99.90
1355;DHT22;671;48.972;9.276;2023-05-07T06:06:01;16.30;99.90
1355;DHT22;671;48.972;9.276;2023-05-07T06:08:30;16.40;99.90
1355;DHT22;671;48.972;9.276;2023-05-07T06:10:57;16.50;99.90
1355;DHT22;671;48.972;9.276;2023-05-07T06:13:24;16.60;99.90
1355;DHT22;671;48.972;9.276;2023-05-07T06:15:51;16.70;99.90
1355;DHT22;671;48.972;9.276;2023-05-07T06:18:17;16.80;99.90
1355;DHT22;671;48.972;9.276;2023-05-07T06:20:44;16.80;99.90
1355;DHT22;671;48.972;9.276;2023-05-07T06:23:10;16.80;99.90
1355;DHT22;671;48.972;9.276;2023-05-07T06:25:37;16.90;99.90
1355;DHT22;671;48.972;9.276;2023-05-07T06:28:03;16.90;99.90
1355;DHT22;671;48.972;9.276;2023-05-07T06:30:30;17.10;99.90
1355;DHT22;671;48.972;9.276;2023-05-07T06:32:56;17.30;99.90
1355;DHT22;671;48.972;9.276;2023-05-07T06:35:23;17.40;99.90
1355;DHT22;671;48.972;9.276;2023-05-07T06:37:49;17.50;99.90
1355;DHT22;671;48.972;9.276;2023-05-07T06:40:16;17.70;99.90
1355;DHT22;671;48.972;9.276;2023-05-07T06:42:43;17.90;99.90
1355;DHT22;671;48.972;9.276;2023-05-07T06:45:09;18.10;99.90
1355;DHT22;671;48.972;9.276;2023-05-07T06:47:36;18.20;99.90
1355;DHT22;671;48.972;9.276;2023-05-07T06:50:03;18.10;99.90
1355;DHT22;671;48.972;9.276;2023-05-07T06:52:29;18.10;99.90
1355;DHT22;671;48.972;9.276;2023-05-07T06:54:56;18.10;99.90
1355;DHT22;671;48.972;9.276;2023-05-07T06:57:22;18.10;99.90
1355;DHT22;671;48.972;9.276;2023-05-07T06:59:49;18.00;99.90
1355;DHT22;671;48.972;9.276;2023-05-07T07:02:15;18.00;99.90
1355;DHT22;671;48.972;9.276;2023-05-07T07:04:41;18.10;99.90
1355;DHT22;671;48.972;9.276;2023-05-07T07:07:08;18.20;99.90
1355;DHT22;671;48.972;9.276;2023-05-07T07:09:34;18.40;99.90
1355;DHT22;671;48.972;9.276;2023-05-07T07:12:01;18.60;99.90
1355;DHT22;671;48.972;9.276;2023-05-07T07:14:27;18.90;99.90
1355;DHT22;671;48.972;9.276;2023-05-07T07:16:54;19.00;99.90
1355;DHT22;671;48.972;9.276;2023-05-07T07:19:20;19.10;99.90
1355;DHT22;671;48.972;9.276;2023-05-07T07:21:47;19.20;99.90
1355;DHT22;671;48.972;9.276;2023-05-07T07:24:14;19.30;99.90
1355;DHT22;671;48.972;9.276;2023-05-07T07:26:47;19.40;99.90
1355;DHT22;671;48.972;9.276;2023-05-07T07:29:14;19.40;99.90
1355;DHT22;671;48.972;9.276;2023-05-07T07:31:40;19.40;99.90
1355;DHT22;671;48.972;9.276;2023-05-07T07:34:07;19.30;99.90
1355;DHT22;671;48.972;9.276;2023-05-07T07:36:33;19.30;99.90
1355;DHT22;671;48.972;9.276;2023-05-07T07:39:00;19.40;99.90
1355;DHT22;671;48.972;9.276;2023-05-07T07:41:26;19.70;99.90
1355;DHT22;671;48.972;9.276;2023-05-07T07:43:52;19.80;99.90
1355;DHT22;671;48.972;9.276;2023-05-07T07:46:19;20.00;99.90
1355;DHT22;671;48.972;9.276;2023-05-07T07:48:45;20.30;99.90
1355;DHT22;671;48.972;9.276;2023-05-07T07:51:12;20.40;99.90
1355;DHT22;671;48.972;9.276;2023-05-07T07:53:38;20.60;99.90
1355;DHT22;671;48.972;9.276;2023-05-07T07:56:05;20.70;99.90
1355;DHT22;671;48.972;9.276;2023-05-07T07:58:31;20.60;99.90
1355;DHT22;671;48.972;9.276;2023-05-07T08:00:58;20.50;99.90
1355;DHT22;671;48.972;9.276;2023-05-07T08:03:24;20.30;99.90
1355;DHT22;671;48.972;9.276;2023-05-07T08:05:51;20.20;99.90
1355;DHT22;671;48.972;9.276;2023-05-07T08:08:17;20.10;99.90
1355;DHT22;671;48.972;9.276;2023-05-07T08:10:59;20.10;99.90
1355;DHT22;671;48.972;9.276;2023-05-07T08:13:25;20.00;99.90
1355;DHT22;671;48.972;9.276;2023-05-07T08:15:52;20.20;99.90
1355;DHT22;671;48.972;9.276;2023-05-07T08:18:18;20.40;99.90
1355;DHT22;671;48.972;9.276;2023-05-07T08:20:45;20.60;99.90
1355;DHT22;671;48.972;9.276;2023-05-07T08:23:12;20.70;99.90
1355;DHT22;671;48.972;9.276;2023-05-07T08:25:39;20.70;99.90
1355;DHT22;671;48.972;9.276;2023-05-07T08:28:06;20.90;99.90
1355;DHT22;671;48.972;9.276;2023-05-07T08:30:32;20.90;99.90
1355;DHT22;671;48.972;9.276;2023-05-07T08:33:00;21.00;99.90
1355;DHT22;671;48.972;9.276;2023-05-07T08:35:26;21.10;99.90
1355;DHT22;671;48.972;9.276;2023-05-07T08:37:54;21.20;99.90
1355;DHT22;671;48.972;9.276;2023-05-07T08:40:25;21.30;99.90
1355;DHT22;671;48.972;9.276;2023-05-07T08:42:53;21.30;99.90
1355;DHT22;671;48.972;9.276;2023-05-07T08:45:20;21.40;99.90
1355;DHT22;671;48.972;9.276;2023-05-07T08:47:52;21.50;99.90
1355;DHT22;671;48.972;9.276;2023-05-07T08:50:45;21.60;99.90
1355;DHT22;671;48.972;9.276;2023-05-07T08:53:12;21.70;99.90
1355;DHT22;671;48.972;9.276;2023-05-07T08:55:39;21.80;99.90
1355;DHT22;671;48.972;9.276;2023-05-07T08:58:06;21.70;99.90
1355;DHT22;671;48.972;9.276;2023-05-07T09:00:33;21.80;99.90
1355;DHT22;671;48.972;9.276;2023-05-07T09:03:00;21.90;99.90
1355;DHT22;671;48.972;9.276;2023-05-07T09:05:27;22.10;99.90
1355;DHT22;671;48.972;9.276;2023-05-07T09:07:53;22.20;99.90
1355;DHT22;671;48.972;9.276;2023-05-07T09:10:21;22.40;99.90
1355;DHT22;671;48.972;9.276;2023-05-07T09:12:48;22.50;99.90
1355;DHT22;671;48.972;9.276;2023-05-07T09:15:14;22.60;99.90
1355;DHT22;671;48.972;9.276;2023-05-07T09:17:43;22.70;99.90
1355;DHT22;671;48.972;9.276;2023-05-07T09:20:09;22.80;99.90
1355;DHT22;671;48.972;9.276;2023-05-07T09:22:37;23.00;99.90
1355;DHT22;671;48.972;9.276;2023-05-07T09:25:06;23.10;99.90
1355;DHT22;671;48.972;9.276;2023-05-07T09:27:33;23.20;99.90
1355;DHT22;671;48.972;9.276;2023-05-07T09:30:03;23.40;99.90
1355;DHT22;671;48.972;9.276;2023-05-07T09:32:30;23.50;99.90
1355;DHT22;671;48.972;9.276;2023-05-07T09:34:57;23.70;99.90
1355;DHT22;671;48.972;9.276;2023-05-07T09:37:26;23.90;99.90
1355;DHT22;671;48.972;9.276;2023-05-07T09:39:53;24.00;99.90
1355;DHT22;671;48.972;9.276;2023-05-07T09:42:26;24.00;99.90
1355;DHT22;671;48.972;9.276;2023-05-07T09:44:53;24.20;99.90
1355;DHT22;671;48.972;9.276;2023-05-07T09:47:20;24.10;99.90
1355;DHT22;671;48.972;9.276;2023-05-07T09:49:48;24.10;99.90
1355;DHT22;671;48.972;9.276;2023-05-07T09:52:16;24.00;99.90
1355;DHT22;671;48.972;9.276;2023-05-07T09:54:43;24.00;99.90
1355;DHT22;671;48.972;9.276;2023-05-07T09:57:11;24.00;99.90
1355;DHT22;671;48.972;9.276;2023-05-07T09:59:42;23.90;99.90
1355;DHT22;671;48.972;9.276;2023-05-07T10:02:09;24.00;99.90
1355;DHT22;671;48.972;9.276;2023-05-07T10:04:37;24.00;99.90
1355;DHT22;671;48.972;9.276;2023-05-07T10:07:04;24.10;99.90
1355;DHT22;671;48.972;9.276;2023-05-07T10:09:32;24.10;99.90
1355;DHT22;671;48.972;9.276;2023-05-07T10:11:59;24.20;99.90
1355;DHT22;671;48.972;9.276;2023-05-07T10:14:28;24.30;99.90
1355;DHT22;671;48.972;9.276;2023-05-07T10:16:55;24.40;99.90
1355;DHT22;671;48.972;9.276;2023-05-07T10:19:23;24.50;99.90
1355;DHT22;671;48.972;9.276;2023-05-07T10:22:02;24.50;99.90
1355;DHT22;671;48.972;9.276;2023-05-07T10:24:32;24.50;99.90
1355;DHT22;671;48.972;9.276;2023-05-07T10:27:01;24.60;99.90
1355;DHT22;671;48.972;9.276;2023-05-07T10:32:42;24.90;99.90
1355;DHT22;671;48.972;9.276;2023-05-07T10:35:18;25.10;99.90
1355;DHT22;671;48.972;9.276;2023-05-07T10:37:45;25.10;99.90
1355;DHT22;671;48.972;9.276;2023-05-07T10:40:12;25.10;99.90
1355;DHT22;671;48.972;9.276;2023-05-07T10:42:59;25.30;99.90
1355;DHT22;671;48.972;9.276;2023-05-07T10:45:27;25.30;99.90
1355;DHT22;671;48.972;9.276;2023-05-07T10:50:37;25.50;99.90
1355;DHT22;671;48.972;9.276;2023-05-07T10:55:50;25.70;99.90
1355;DHT22;671;48.972;9.276;2023-05-07T11:01:01;26.00;98.90
1355;DHT22;671;48.972;9.276;2023-05-07T11:03:28;26.10;99.90
1355;DHT22;671;48.972;9.276;2023-05-07T11:06:11;26.20;99.40
1355;DHT22;671;48.972;9.276;2023-05-07T11:08:57;26.30;98.00
1355;DHT22;671;48.972;9.276;2023-05-07T11:11:47;26.40;98.20
1355;DHT22;671;48.972;9.276;2023-05-07T11:17:06;26.50;98.20
1355;DHT22;671;48.972;9.276;2023-05-07T11:19:53;26.70;98.30
1355;DHT22;671;48.972;9.276;2023-05-07T11:26:08;26.80;97.30
1355;DHT22;671;48.972;9.276;2023-05-07T11:28:39;26.60;96.50
1355;DHT22;671;48.972;9.276;2023-05-07T11:31:06;26.70;98.00
1355;DHT22;671;48.972;9.276;2023-05-07T11:33:33;26.70;96.50
1355;DHT22;671;48.972;9.276;2023-05-07T11:36:01;26.70;95.80
1355;DHT22;671;48.972;9.276;2023-05-07T11:38:29;26.70;97.10
1355;DHT22;671;48.972;9.276;2023-05-07T11:40:58;26.70;96.10
1355;DHT22;671;48.972;9.276;2023-05-07T11:43:28;26.60;96.40
1355;DHT22;671;48.972;9.276;2023-05-07T11:45:55;26.60;97.10
1355;DHT22;671;48.972;9.276;2023-05-07T11:48:30;26.50;96.40
1355;DHT22;671;48.972;9.276;2023-05-07T11:51:02;26.40;97.30
1355;DHT22;671;48.972;9.276;2023-05-07T11:53:43;26.40;96.40
1355;DHT22;671;48.972;9.276;2023-05-07T11:56:11;26.30;96.00
1355;DHT22;671;48.972;9.276;2023-05-07T11:58:38;26.30;97.00
1355;DHT22;671;48.972;9.276;2023-05-07T12:01:07;26.30;97.20
1355;DHT22;671;48.972;9.276;2023-05-07T12:03:36;26.30;97.00
1355;DHT22;671;48.972;9.276;2023-05-07T12:06:06;26.40;96.60
1355;DHT22;671;48.972;9.276;2023-05-07T12:08:33;26.50;97.00
1355;DHT22;671;48.972;9.276;2023-05-07T12:11:02;26.50;96.50
1355;DHT22;671;48.972;9.276;2023-05-07T12:13:28;26.50;95.80
1355;DHT22;671;48.972;9.276;2023-05-07T12:15:55;26.50;96.40
1355;DHT22;671;48.972;9.276;2023-05-07T12:18:23;26.60;96.40
1355;DHT22;671;48.972;9.276;2023-05-07T12:20:50;26.70;96.10
1355;DHT22;671;48.972;9.276;2023-05-07T12:23:17;26.70;96.00
1355;DHT22;671;48.972;9.276;2023-05-07T12:25:44;26.80;95.90
1355;DHT22;671;48.972;9.276;2023-05-07T12:28:15;27.00;95.50
1355;DHT22;671;48.972;9.276;2023-05-07T12:30:43;27.00;96.00
1355;DHT22;671;48.972;9.276;2023-05-07T12:33:11;27.20;95.20
1355;DHT22;671;48.972;9.276;2023-05-07T12:35:42;27.30;94.90
1355;DHT22;671;48.972;9.276;2023-05-07T12:38:13;27.40;95.40
1355;DHT22;671;48.972;9.276;2023-05-07T12:40:42;27.40;95.00
1355;DHT22;671;48.972;9.276;2023-05-07T12:43:15;27.50;95.10
1355;DHT22;671;48.972;9.276;2023-05-07T12:45:44;27.60;95.60
1355;DHT22;671;48.972;9.276;2023-05-07T12:48:11;27.60;93.80
1355;DHT22;671;48.972;9.276;2023-05-07T12:50:37;27.60;94.60
1355;DHT22;671;48.972;9.276;2023-05-07T12:53:05;27.50;94.30
1355;DHT22;671;48.972;9.276;2023-05-07T12:55:32;27.50;95.00
1355;DHT22;671;48.972;9.276;2023-05-07T12:58:06;27.30;94.20
1355;DHT22;671;48.972;9.276;2023-05-07T13:00:39;27.30;95.30
1355;DHT22;671;48.972;9.276;2023-05-07T13:03:05;27.30;94.50
1355;DHT22;671;48.972;9.276;2023-05-07T13:05:32;27.20;94.00
1355;DHT22;671;48.972;9.276;2023-05-07T13:07:59;27.10;94.60
1355;DHT22;671;48.972;9.276;2023-05-07T13:10:26;27.10;94.60
1355;DHT22;671;48.972;9.276;2023-05-07T13:12:53;27.00;95.50
1355;DHT22;671;48.972;9.276;2023-05-07T13:15:19;26.90;94.40
1355;DHT22;671;48.972;9.276;2023-05-07T13:17:46;26.90;94.70
1355;DHT22;671;48.972;9.276;2023-05-07T13:20:13;26.80;94.60
1355;DHT22;671;48.972;9.276;2023-05-07T13:22:40;26.70;94.90
1355;DHT22;671;48.972;9.276;2023-05-07T13:25:07;26.60;95.20
1355;DHT22;671;48.972;9.276;2023-05-07T13:27:33;26.40;95.60
1355;DHT22;671;48.972;9.276;2023-05-07T13:30:04;26.20;96.00
1355;DHT22;671;48.972;9.276;2023-05-07T13:32:31;25.80;96.20
1355;DHT22;671;48.972;9.276;2023-05-07T13:34:58;25.70;96.90
1355;DHT22;671;48.972;9.276;2023-05-07T13:37:24;25.30;97.60
1355;DHT22;671;48.972;9.276;2023-05-07T13:39:50;25.10;97.90
1355;DHT22;671;48.972;9.276;2023-05-07T13:42:17;24.70;98.30
1355;DHT22;671;48.972;9.276;2023-05-07T13:44:44;24.40;99.30
1355;DHT22;671;48.972;9.276;2023-05-07T13:47:10;24.10;99.70
1355;DHT22;671;48.972;9.276;2023-05-07T13:49:37;23.60;99.20
1355;DHT22;671;48.972;9.276;2023-05-07T13:52:03;23.30;99.90
1355;DHT22;671;48.972;9.276;2023-05-07T13:54:30;22.90;99.90
1355;DHT22;671;48.972;9.276;2023-05-07T13:56:57;22.60;99.90
1355;DHT22;671;48.972;9.276;2023-05-07T13:59:23;22.30;99.70
1355;DHT22;671;48.972;9.276;2023-05-07T14:01:49;22.20;99.70
1355;DHT22;671;48.972;9.276;2023-05-07T14:04:16;22.00;99.50
1355;DHT22;671;48.972;9.276;2023-05-07T14:06:42;21.90;99.90
1355;DHT22;671;48.972;9.276;2023-05-07T14:09:09;21.70;99.90
1355;DHT22;671;48.972;9.276;2023-05-07T14:11:38;21.60;99.90
1355;DHT22;671;48.972;9.276;2023-05-07T14:14:05;21.60;99.90
1355;DHT22;671;48.972;9.276;2023-05-07T14:16:31;21.50;99.90
1355;DHT22;671;48.972;9.276;2023-05-07T14:18:58;21.30;99.90
1355;DHT22;671;48.972;9.276;2023-05-07T14:21:24;21.20;99.90
1355;DHT22;671;48.972;9.276;2023-05-07T14:23:51;21.20;99.90
1355;DHT22;671;48.972;9.276;2023-05-07T14:26:18;21.10;99.90
1355;DHT22;671;48.972;9.276;2023-05-07T14:28:44;21.20;99.90
1355;DHT22;671;48.972;9.276;2023-05-07T14:31:12;21.00;99.90
1355;DHT22;671;48.972;9.276;2023-05-07T14:33:39;20.90;99.90
1355;DHT22;671;48.972;9.276;2023-05-07T14:36:06;20.80;99.90
1355;DHT22;671;48.972;9.276;2023-05-07T14:38:32;20.70;99.90
1355;DHT22;671;48.972;9.276;2023-05-07T14:40:59;20.50;99.90
1355;DHT22;671;48.972;9.276;2023-05-07T14:43:25;20.50;99.90
1355;DHT22;671;48.972;9.276;2023-05-07T14:45:52;20.30;99.90
1355;DHT22;671;48.972;9.276;2023-05-07T14:48:18;20.30;99.90
1355;DHT22;671;48.972;9.276;2023-05-07T14:50:47;20.30;99.90
1355;DHT22;671;48.972;9.276;2023-05-07T14:53:14;20.30;99.90
1355;DHT22;671;48.972;9.276;2023-05-07T14:55:41;20.20;99.90
1355;DHT22;671;48.972;9.276;2023-05-07T14:58:07;20.10;99.90
1355;DHT22;671;48.972;9.276;2023-05-07T15:00:34;20.20;99.90
1355;DHT22;671;48.972;9.276;2023-05-07T15:03:08;20.20;99.90
1355;DHT22;671;48.972;9.276;2023-05-07T15:05:36;20.30;99.90
1355;DHT22;671;48.972;9.276;2023-05-07T15:08:02;20.30;99.90
1355;DHT22;671;48.972;9.276;2023-05-07T15:10:29;20.30;99.90
1355;DHT22;671;48.972;9.276;2023-05-07T15:12:55;20.30;99.90
1355;DHT22;671;48.972;9.276;2023-05-07T15:15:22;20.20;99.90
1355;DHT22;671;48.972;9.276;2023-05-07T15:17:48;20.20;99.90
1355;DHT22;671;48.972;9.276;2023-05-07T15:20:15;20.20;99.90
1355;DHT22;671;48.972;9.276;2023-05-07T15:22:41;20.20;99.90
1355;DHT22;671;48.972;9.276;2023-05-07T15:25:08;20.10;99.90
1355;DHT22;671;48.972;9.276;2023-05-07T15:27:34;20.10;99.90
1355;DHT22;671;48.972;9.276;2023-05-07T15:30:02;20.20;99.90
1355;DHT22;671;48.972;9.276;2023-05-07T15:32:28;20.20;99.90
1355;DHT22;671;48.972;9.276;2023-05-07T15:34:55;20.30;99.90
1355;DHT22;671;48.972;9.276;2023-05-07T15:37:21;20.40;99.90
1355;DHT22;671;48.972;9.276;2023-05-07T15:39:50;20.40;99.90
1355;DHT22;671;48.972;9.276;2023-05-07T15:42:17;20.50;99.90
1355;DHT22;671;48.972;9.276;2023-05-07T15:44:43;20.50;99.90
1355;DHT22;671;48.972;9.276;2023-05-07T15:47:10;20.50;99.90
1355;DHT22;671;48.972;9.276;2023-05-07T15:49:36;20.40;99.90
1355;DHT22;671;48.972;9.276;2023-05-07T15:52:03;20.20;99.90
1355;DHT22;671;48.972;9.276;2023-05-07T15:54:30;20.10;99.90
1355;DHT22;671;48.972;9.276;2023-05-07T15:56:56;19.90;99.90
1355;DHT22;671;48.972;9.276;2023-05-07T15:59:23;19.80;99.90
1355;DHT22;671;48.972;9.276;2023-05-07T16:01:49;19.70;99.90
1355;DHT22;671;48.972;9.276;2023-05-07T16:04:16;19.60;99.90
1355;DHT22;671;48.972;9.276;2023-05-07T16:06:43;19.50;99.90
1355;DHT22;671;48.972;9.276;2023-05-07T16:09:13;19.30;99.90
1355;DHT22;671;48.972;9.276;2023-05-07T16:11:39;19.10;99.90
1355;DHT22;671;48.972;9.276;2023-05-07T16:14:06;19.10;99.90
1355;DHT22;671;48.972;9.276;2023-05-07T16:16:33;19.00;99.90
1355;DHT22;671;48.972;9.276;2023-05-07T16:19:00;19.00;99.90
1355;DHT22;671;48.972;9.276;2023-05-07T16:21:27;18.90;99.90
1355;DHT22;671;48.972;9.276;2023-05-07T16:23:54;18.80;99.90
1355;DHT22;671;48.972;9.276;2023-05-07T16:26:20;18.80;99.90
1355;DHT22;671;48.972;9.276;2023-05-07T16:28:47;18.70;99.90
1355;DHT22;671;48.972;9.276;2023-05-07T16:31:13;18.70;99.90
1355;DHT22;671;48.972;9.276;2023-05-07T16:33:40;18.60;99.90
1355;DHT22;671;48.972;9.276;2023-05-07T16:36:07;18.50;99.90